Time;durP1;ratioP1;P1;durP2;ratioP2;P2;SDS_P1;SDS_P2;PMS_P1;PMS_P2;Temp;Humidity;BMP_temperature;BMP_pressure;BME280_temperature;BME280_humidity;BME280_pressure;Samples;Min_cycle;Max_cycle;Signal;HPM_P1;HPM_P2
2022/08/23 00:02:09;;;;;;;2.28;0.80;;;18.20;84.80;;;;;;4980201;28;20460;-77
2022/08/23 00:04:39;;;;;;;1.50;0.90;;;18.30;83.50;;;;;;4993455;28;20448;-78
2022/08/23 00:07:10;;;;;;;2.27;0.80;;;18.50;82.20;;;;;;4993397;28;20385;-81
2022/08/23 00:09:37;;;;;;;3.33;0.80;;;18.50;82.40;;;;;;4993392;28;20377;-78
2022/08/23 00:12:10;;;;;;;3.13;0.80;;;18.60;82.50;;;;;;4992942;28;20423;-75
2022/08/23 00:14:41;;;;;;;2.50;0.73;;;18.70;78.90;;;;;;4980412;28;20587;-78
2022/08/23 00:17:09;;;;;;;3.20;0.80;;;18.90;78.20;;;;;;4993230;28;20432;-76
2022/08/23 00:19:38;;;;;;;2.58;0.60;;;18.90;76.30;;;;;;4993143;28;20377;-78
2022/08/23 00:22:06;;;;;;;1.88;0.70;;;19.00;76.20;;;;;;4993054;28;20745;-78
2022/08/23 00:24:33;;;;;;;1.27;0.68;;;19.10;78.00;;;;;;4992789;28;20462;-78
2022/08/23 00:27:07;;;;;;;2.30;0.60;;;19.20;76.50;;;;;;4992997;28;20412;-76
2022/08/23 00:29:44;;;;;;;1.20;0.70;;;19.20;76.30;;;;;;4993117;28;20481;-77
2022/08/23 00:32:15;;;;;;;1.70;0.80;;;19.30;74.60;;;;;;4993003;28;20737;-76
2022/08/23 00:34:43;;;;;;;4.03;1.00;;;19.30;75.30;;;;;;4988712;28;20410;-80
2022/08/23 00:37:11;;;;;;;2.50;0.90;;;19.30;75.90;;;;;;4966301;28;20768;-78
2022/08/23 00:39:39;;;;;;;1.77;0.90;;;19.40;75.10;;;;;;4992455;28;20513;-78
2022/08/23 00:48:03;;;;;;;1.63;0.80;;;19.60;74.90;;;;;;4994787;28;20785;-77
2022/08/23 00:50:37;;;;;;;2.13;0.70;;;19.70;74.10;;;;;;4995867;28;20383;-77
2022/08/23 00:53:20;;;;;;;3.58;1.00;;;19.90;73.50;;;;;;4995499;28;20446;-77
2022/08/23 00:55:50;;;;;;;8.98;1.00;;;20.10;72.50;;;;;;4995589;28;20381;-76
2022/08/23 00:58:20;;;;;;;2.03;0.70;;;20.20;72.30;;;;;;4999304;28;20955;-79
2022/08/23 01:00:49;;;;;;;3.70;0.88;;;20.30;71.00;;;;;;5006354;28;20393;-79
2022/08/23 01:03:18;;;;;;;1.83;0.80;;;20.40;70.70;;;;;;5006796;28;20374;-79
2022/08/23 01:06:14;;;;;;;1.45;0.70;;;20.40;69.70;;;;;;5008288;28;20480;-80
2022/08/23 01:08:45;;;;;;;1.67;0.90;;;20.60;70.60;;;;;;5010615;28;20409;-79
2022/08/23 01:11:32;;;;;;;4.90;0.90;;;21.00;69.80;;;;;;4996351;28;20393;-77
2022/08/23 01:14:16;;;;;;;2.00;0.90;;;21.40;67.40;;;;;;4975924;28;20811;-80
2022/08/23 01:16:56;;;;;;;5.05;0.85;;;21.50;67.60;;;;;;4992402;28;20380;-79
2022/08/23 01:19:40;;;;;;;2.47;0.80;;;21.60;65.30;;;;;;4992242;28;20377;-79
2022/08/23 01:22:13;;;;;;;3.00;0.90;;;21.60;65.20;;;;;;4992252;28;20881;-79
2022/08/23 01:24:41;;;;;;;2.50;0.90;;;21.70;65.40;;;;;;4991825;28;20820;-78
2022/08/23 01:27:11;;;;;;;1.85;0.90;;;21.70;64.40;;;;;;4974606;28;20718;-77
2022/08/23 01:29:40;;;;;;;1.95;0.80;;;21.70;64.50;;;;;;4991969;28;20740;-77
2022/08/23 01:32:11;;;;;;;2.20;0.98;;;21.70;65.50;;;;;;4991967;28;20437;-76
2022/08/23 01:34:38;;;;;;;1.50;0.70;;;22.00;64.50;;;;;;4991887;28;20892;-77
2022/08/23 01:37:07;;;;;;;3.58;1.00;;;21.80;63.60;;;;;;4992038;28;20377;-79
2022/08/23 01:39:35;;;;;;;1.40;0.85;;;21.80;63.60;;;;;;4991737;28;20869;-79
2022/08/23 01:42:03;;;;;;;2.13;0.93;;;21.60;64.40;;;;;;4974226;28;20733;-79
2022/08/23 01:44:30;;;;;;;1.63;0.90;;;21.60;64.90;;;;;;4991830;28;20388;-77
2022/08/23 01:46:57;;;;;;;1.42;0.77;;;21.40;64.30;;;;;;4992079;28;20454;-78
2022/08/23 01:49:24;;;;;;;1.80;0.70;;;21.20;64.30;;;;;;4992197;28;20381;-79
2022/08/23 01:51:51;;;;;;;2.53;0.90;;;21.10;65.30;;;;;;4991904;28;20387;-81
2022/08/23 01:54:20;;;;;;;3.53;0.90;;;20.90;66.20;;;;;;4991764;28;20773;-76
2022/08/23 01:56:47;;;;;;;2.58;1.05;;;20.80;66.10;;;;;;4991220;28;20388;-80
2022/08/23 01:59:14;;;;;;;3.40;1.50;;;20.70;66.40;;;;;;4991809;28;20479;-76
2022/08/23 02:01:41;;;;;;;3.90;1.25;;;21.10;66.70;;;;;;4990998;28;20383;-79
2022/08/23 02:04:08;;;;;;;2.58;1.00;;;21.50;65.50;;;;;;4991849;28;20753;-77
2022/08/23 02:06:35;;;;;;;5.28;1.10;;;21.80;64.10;;;;;;4990994;28;20392;-80
2022/08/23 02:09:04;;;;;;;2.03;0.90;;;22.00;63.20;;;;;;4991162;28;20473;-78
2022/08/23 02:11:38;;;;;;;1.50;0.80;;;21.90;63.60;;;;;;4991139;28;20385;-77
2022/08/23 02:14:09;;;;;;;3.17;1.10;;;21.60;64.60;;;;;;4977274;28;20494;-79
2022/08/23 02:16:39;;;;;;;2.97;1.25;;;21.30;64.80;;;;;;4991369;28;20868;-80
2022/08/23 02:19:10;;;;;;;4.45;1.40;;;21.10;65.60;;;;;;4992767;28;20450;-79
2022/08/23 02:21:39;;;;;;;4.47;1.20;;;21.60;65.70;;;;;;4994827;28;20388;-80
2022/08/23 02:24:13;;;;;;;2.25;1.00;;;22.20;61.70;;;;;;4993900;28;20385;-77
2022/08/23 02:26:43;;;;;;;1.33;0.90;;;22.20;58.80;;;;;;4991998;28;20416;-76
2022/08/23 02:29:10;;;;;;;3.53;0.90;;;21.80;58.80;;;;;;4991398;28;20412;-78
2022/08/23 02:31:37;;;;;;;1.27;0.73;;;21.60;59.90;;;;;;4991299;28;20383;-78
2022/08/23 02:34:04;;;;;;;2.22;0.80;;;21.30;60.50;;;;;;4991066;28;20872;-77
2022/08/23 02:36:33;;;;;;;3.50;1.02;;;21.20;61.60;;;;;;4973931;28;20397;-78
2022/08/23 02:39:00;;;;;;;3.50;0.95;;;21.10;61.70;;;;;;4991192;28;20471;-78
2022/08/23 02:41:28;;;;;;;6.82;1.20;;;21.40;61.30;;;;;;4990905;28;20423;-77
2022/08/23 02:43:55;;;;;;;5.38;1.20;;;21.80;62.10;;;;;;4991138;28;20381;-76
2022/08/23 02:46:23;;;;;;;2.97;1.10;;;22.10;60.20;;;;;;4990743;28;20407;-78
2022/08/23 02:48:51;;;;;;;3.08;0.90;;;22.90;59.70;;;;;;4990597;28;20372;-77
2022/08/23 02:51:18;;;;;;;6.75;1.17;;;23.30;57.60;;;;;;4990755;28;20389;-77
2022/08/23 02:53:46;;;;;;;2.58;0.90;;;22.90;57.50;;;;;;4990758;28;20437;-77
2022/08/23 02:56:14;;;;;;;3.42;0.80;;;23.00;57.10;;;;;;4991106;28;20769;-77
2022/08/23 02:58:44;;;;;;;1.27;0.60;;;22.90;54.10;;;;;;4990825;28;20380;-77
2022/08/23 03:01:24;;;;;;;4.80;0.82;;;22.60;55.50;;;;;;4990748;28;20434;-77
2022/08/23 03:03:51;;;;;;;2.53;0.80;;;23.00;55.80;;;;;;4990728;28;20376;-77
2022/08/23 03:06:18;;;;;;;6.22;1.15;;;23.50;54.80;;;;;;4990493;28;20433;-78
2022/08/23 03:08:46;;;;;;;9.50;1.40;;;23.10;56.50;;;;;;4990385;28;20377;-78
2022/08/23 03:11:15;;;;;;;6.50;1.50;;;22.50;57.70;;;;;;4990550;28;20903;-79
2022/08/23 03:13:46;;;;;;;5.22;1.20;;;22.10;57.70;;;;;;4990488;28;20377;-77
2022/08/23 03:16:15;;;;;;;7.57;1.20;;;21.60;58.40;;;;;;4990598;28;20384;-77
2022/08/23 03:18:42;;;;;;;7.10;1.40;;;21.30;58.60;;;;;;4990583;28;20761;-77
2022/08/23 03:21:10;;;;;;;8.13;1.60;;;21.00;59.40;;;;;;4990974;28;20384;-77
2022/08/23 03:23:39;;;;;;;8.07;1.33;;;20.60;61.20;;;;;;4994135;28;20380;-78
2022/08/23 03:26:08;;;;;;;5.45;1.15;;;20.40;62.00;;;;;;4994081;28;20385;-79
2022/08/23 03:28:37;;;;;;;4.35;1.20;;;20.20;64.30;;;;;;4994201;28;20377;-78
2022/08/23 03:31:05;;;;;;;2.75;0.90;;;20.10;64.50;;;;;;4993864;28;20384;-78
2022/08/23 03:33:33;;;;;;;2.90;1.20;;;20.00;64.70;;;;;;4994000;28;20464;-78
2022/08/23 03:36:01;;;;;;;2.17;0.98;;;19.80;63.80;;;;;;4993784;28;20396;-77
2022/08/23 03:38:29;;;;;;;8.50;1.65;;;19.70;64.40;;;;;;4993895;28;20829;-78
2022/08/23 03:40:56;;;;;;;12.50;2.28;;;19.30;77.50;;;;;;4993772;28;20475;-76
2022/08/23 03:43:23;;;;;;;12.60;2.38;;;18.30;85.50;;;;;;4993587;28;20377;-78
2022/08/23 03:45:51;;;;;;;8.57;1.80;;;17.20;95.00;;;;;;4993894;28;20385;-76
2022/08/23 03:48:18;;;;;;;11.35;1.98;;;16.30;99.90;;;;;;4990867;28;20393;-76
2022/08/23 03:50:45;;;;;;;10.93;2.05;;;15.50;99.90;;;;;;4993413;28;20392;-77
2022/08/23 03:53:13;;;;;;;10.13;1.90;;;14.80;99.90;;;;;;4993273;28;20740;-75
2022/08/23 03:55:42;;;;;;;8.60;2.00;;;14.40;99.90;;;;;;4993425;28;20420;-76
2022/08/23 03:58:10;;;;;;;5.47;1.45;;;14.00;99.90;;;;;;4993137;28;20377;-75
2022/08/23 04:00:38;;;;;;;4.72;1.50;;;13.60;99.90;;;;;;4993232;28;20385;-76
2022/08/23 04:03:05;;;;;;;3.33;1.40;;;13.40;99.90;;;;;;4993305;28;20385;-76
2022/08/23 04:05:33;;;;;;;8.82;1.70;;;13.20;99.90;;;;;;4979573;28;20421;-76
2022/08/23 04:08:05;;;;;;;6.70;2.10;;;12.90;99.90;;;;;;4993315;28;20385;-75
2022/08/23 04:10:33;;;;;;;2.22;0.90;;;12.80;99.90;;;;;;4992914;28;20393;-75
2022/08/23 04:13:00;;;;;;;2.67;1.10;;;12.60;99.90;;;;;;4985743;28;20382;-75
2022/08/23 04:15:27;;;;;;;3.05;1.00;;;12.50;99.90;;;;;;4987054;28;20471;-75
2022/08/23 04:17:54;;;;;;;2.57;1.00;;;12.40;99.90;;;;;;4993028;28;20392;-76
2022/08/23 04:20:22;;;;;;;3.97;1.10;;;12.30;99.90;;;;;;4992911;28;20872;-77
2022/08/23 04:22:53;;;;;;;3.03;0.85;;;12.30;99.90;;;;;;4992806;28;20380;-75
2022/08/23 04:25:21;;;;;;;4.32;1.00;;;12.20;99.90;;;;;;4992892;28;20377;-75
2022/08/23 04:27:49;;;;;;;3.72;1.00;;;12.20;99.90;;;;;;4992638;28;20377;-75
2022/08/23 04:30:18;;;;;;;3.13;0.98;;;12.20;99.90;;;;;;4992935;28;20472;-74
2022/08/23 04:32:46;;;;;;;2.53;0.90;;;12.20;99.90;;;;;;4991621;28;20500;-75
2022/08/23 04:35:13;;;;;;;3.23;0.70;;;12.30;99.90;;;;;;4992593;28;20915;-75
2022/08/23 04:37:41;;;;;;;3.75;0.85;;;12.10;99.90;;;;;;4992411;28;20424;-75
2022/08/23 04:42:54;;;;;;;1.27;0.60;;;12.00;99.90;;;;;;4977169;28;20384;-75
2022/08/23 04:45:21;;;;;;;0.75;0.45;;;11.80;99.90;;;;;;4992627;28;20393;-75
2022/08/23 04:47:48;;;;;;;1.65;0.60;;;11.70;99.90;;;;;;4942179;28;20387;-75
2022/08/23 04:50:16;;;;;;;2.67;0.90;;;11.60;99.90;;;;;;4979126;28;20431;-75
2022/08/23 04:52:43;;;;;;;2.90;0.70;;;11.50;99.90;;;;;;4992426;28;20392;-75
2022/08/23 04:55:12;;;;;;;1.08;0.40;;;11.30;99.90;;;;;;4992039;28;20411;-75
2022/08/23 04:57:43;;;;;;;1.95;0.50;;;11.20;99.90;;;;;;4991710;28;21103;-75
2022/08/23 05:00:13;;;;;;;2.60;0.65;;;11.00;99.90;;;;;;4992071;28;20404;-74
2022/08/23 05:02:40;;;;;;;1.38;0.60;;;10.90;99.90;;;;;;4992272;28;20431;-75
2022/08/23 05:05:10;;;;;;;2.35;0.60;;;10.90;99.90;;;;;;4991711;28;20413;-75
2022/08/23 05:07:39;;;;;;;1.27;0.60;;;10.90;99.90;;;;;;4974844;28;20391;-76
2022/08/23 05:10:08;;;;;;;1.30;0.50;;;10.80;99.90;;;;;;4991789;28;20381;-76
2022/08/23 05:12:36;;;;;;;1.33;0.40;;;10.80;99.90;;;;;;4988060;28;20402;-75
2022/08/23 05:15:03;;;;;;;3.65;0.52;;;10.60;99.90;;;;;;4982462;28;20773;-75
2022/08/23 05:17:30;;;;;;;2.83;0.40;;;10.40;99.90;;;;;;4991779;28;20460;-75
2022/08/23 05:19:57;;;;;;;1.90;0.40;;;10.20;99.90;;;;;;4991913;28;20389;-75
2022/08/23 05:22:24;;;;;;;2.25;0.60;;;10.00;99.90;;;;;;4991535;28;20388;-75
2022/08/23 05:24:51;;;;;;;1.98;0.32;;;9.90;99.90;;;;;;4991746;28;20393;-75
2022/08/23 05:27:21;;;;;;;0.60;0.30;;;9.80;99.90;;;;;;4989002;28;20380;-75
2022/08/23 05:29:48;;;;;;;0.55;0.40;;;9.70;99.90;;;;;;4991746;28;20480;-76
2022/08/23 05:32:15;;;;;;;1.50;0.40;;;9.60;99.90;;;;;;4991915;28;20404;-76
2022/08/23 05:34:42;;;;;;;0.45;0.40;;;9.40;99.90;;;;;;4996443;28;20408;-77
2022/08/23 05:37:09;;;;;;;0.63;0.50;;;9.20;99.90;;;;;;4996794;28;20384;-77
2022/08/23 05:39:37;;;;;;;0.50;0.50;;;9.00;99.90;;;;;;4993706;28;20384;-77
2022/08/23 05:42:09;;;;;;;2.42;0.57;;;8.70;99.90;;;;;;4992618;28;20952;-77
2022/08/23 05:44:36;;;;;;;1.08;0.50;;;8.50;99.90;;;;;;4991994;28;20776;-77
2022/08/23 05:47:06;;;;;;;2.40;0.70;;;8.40;99.90;;;;;;4992344;28;20436;-76
2022/08/23 05:49:38;;;;;;;1.58;0.60;;;8.30;99.90;;;;;;4991655;28;20872;-75
2022/08/23 05:52:08;;;;;;;3.27;0.90;;;8.20;99.90;;;;;;4992158;28;20931;-77
2022/08/23 05:54:35;;;;;;;2.33;0.60;;;8.10;99.90;;;;;;4991862;28;20872;-77
2022/08/23 05:57:03;;;;;;;1.83;0.70;;;8.20;99.90;;;;;;4991879;28;20862;-77
2022/08/23 05:59:30;;;;;;;1.20;0.60;;;8.10;99.90;;;;;;4991796;28;20495;-80
2022/08/23 06:01:57;;;;;;;2.08;0.60;;;8.10;99.90;;;;;;4973866;28;20401;-79
2022/08/23 06:04:24;;;;;;;1.10;0.50;;;8.10;99.90;;;;;;4990564;28;20376;-79
2022/08/23 06:06:52;;;;;;;0.40;0.40;;;8.20;99.90;;;;;;4991200;28;20404;-77
2022/08/23 06:09:19;;;;;;;2.00;0.53;;;8.20;99.90;;;;;;4989271;28;20883;-80
2022/08/23 06:11:47;;;;;;;1.60;0.50;;;8.20;99.90;;;;;;4989112;28;20473;-81
2022/08/23 06:14:15;;;;;;;1.70;0.43;;;8.10;99.90;;;;;;4981259;28;20408;-79
2022/08/23 06:16:46;;;;;;;2.20;0.40;;;8.00;99.90;;;;;;4973495;28;20392;-80
2022/08/23 06:19:14;;;;;;;0.70;0.55;;;8.00;99.90;;;;;;4991145;28;20393;-81
2022/08/23 06:21:42;;;;;;;0.60;0.45;;;7.90;99.90;;;;;;4990696;28;20752;-81
2022/08/23 06:24:09;;;;;;;0.75;0.50;;;7.80;99.90;;;;;;4990397;28;20377;-81
2022/08/23 06:26:43;;;;;;;1.00;0.50;;;7.80;99.90;;;;;;4973612;28;20404;-79
2022/08/23 06:29:13;;;;;;;0.80;0.50;;;7.80;99.90;;;;;;4990580;28;20385;-81
2022/08/23 06:31:47;;;;;;;1.10;0.50;;;7.70;99.90;;;;;;4991253;28;20392;-82
2022/08/23 06:34:24;;;;;;;1.10;0.50;;;7.80;99.90;;;;;;4991178;28;20403;-87
2022/08/23 06:36:54;;;;;;;0.65;0.50;;;7.80;99.90;;;;;;4990280;28;20507;-87
2022/08/23 06:39:24;;;;;;;0.88;0.50;;;7.80;99.90;;;;;;4991042;28;20467;-83
2022/08/23 06:44:42;;;;;;;0.52;0.40;;;7.70;99.90;;;;;;4992066;28;20384;-81
2022/08/23 06:47:10;;;;;;;0.83;0.60;;;7.70;99.90;;;;;;4991058;28;20400;-79
2022/08/23 06:49:37;;;;;;;0.50;0.50;;;7.70;99.90;;;;;;4990937;28;20465;-81
2022/08/23 06:52:04;;;;;;;0.93;0.55;;;7.70;99.90;;;;;;4990566;28;20389;-78
2022/08/23 06:54:35;;;;;;;0.68;0.50;;;7.70;99.90;;;;;;4990736;28;20466;-83
2022/08/23 06:57:03;;;;;;;0.43;0.43;;;7.70;99.90;;;;;;4969785;28;20388;-79
2022/08/23 06:59:30;;;;;;;0.80;0.50;;;7.70;99.90;;;;;;4994834;28;20430;-80
2022/08/23 07:01:59;;;;;;;1.00;0.50;;;7.60;99.90;;;;;;4994453;28;20412;-79
2022/08/23 07:04:33;;;;;;;0.95;0.50;;;7.60;99.90;;;;;;4994423;28;20393;-80
2022/08/23 07:07:00;;;;;;;0.93;0.50;;;7.60;99.90;;;;;;4994149;28;20790;-81
2022/08/23 07:09:29;;;;;;;0.93;0.50;;;7.60;99.90;;;;;;4994596;28;20757;-79
2022/08/23 07:11:57;;;;;;;0.68;0.52;;;7.50;99.90;;;;;;4994133;28;20393;-79
2022/08/23 07:14:25;;;;;;;0.68;0.60;;;7.50;99.90;;;;;;4980859;28;20419;-81
2022/08/23 07:16:59;;;;;;;0.40;0.40;;;7.50;99.90;;;;;;4994839;28;20393;-77
2022/08/23 07:19:28;;;;;;;0.50;0.40;;;7.50;99.90;;;;;;4994290;28;20932;-80
2022/08/23 07:21:56;;;;;;;0.47;0.30;;;7.50;99.90;;;;;;4993548;28;21093;-79
2022/08/23 07:24:23;;;;;;;0.43;0.40;;;7.50;99.90;;;;;;4994249;28;20377;-79
2022/08/23 07:26:51;;;;;;;0.30;0.30;;;7.50;99.90;;;;;;4994277;28;20392;-79
2022/08/23 07:29:20;;;;;;;0.32;0.30;;;7.50;99.90;;;;;;4994068;28;20388;-79
2022/08/23 07:31:51;;;;;;;0.28;0.28;;;7.50;99.90;;;;;;4976791;28;20424;-82
2022/08/23 07:34:19;;;;;;;0.35;0.30;;;7.50;99.90;;;;;;4995037;28;20411;-86
2022/08/23 07:36:48;;;;;;;0.55;0.40;;;7.40;99.90;;;;;;4994333;28;20395;-89
2022/08/23 07:39:19;;;;;;;0.80;0.40;;;7.50;99.90;;;;;;4994234;28;20453;-80
2022/08/23 07:41:46;;;;;;;0.40;0.30;;;7.40;99.90;;;;;;4993920;28;20392;-80
2022/08/23 07:44:14;;;;;;;0.80;0.30;;;7.40;99.90;;;;;;4994757;28;20446;-77
2022/08/23 07:46:43;;;;;;;0.25;0.25;;;7.30;99.90;;;;;;4993951;28;20385;-86
2022/08/23 07:49:12;;;;;;;0.30;0.30;;;7.30;99.90;;;;;;4992466;28;20433;-84
2022/08/23 07:51:41;;;;;;;0.85;0.40;;;7.30;99.90;;;;;;4989676;28;20381;-83
2022/08/23 07:54:11;;;;;;;0.60;0.52;;;7.30;99.90;;;;;;4989627;28;20416;-81
2022/08/23 07:56:39;;;;;;;0.70;0.50;;;7.30;99.90;;;;;;4993039;28;20381;-81
2022/08/23 07:59:08;;;;;;;0.35;0.35;;;7.30;99.90;;;;;;4993533;28;20413;-82
2022/08/23 08:01:35;;;;;;;0.70;0.40;;;7.30;99.90;;;;;;4993028;28;20377;-81
2022/08/23 08:04:04;;;;;;;0.52;0.40;;;7.20;99.90;;;;;;4992319;28;20393;-79
2022/08/23 08:06:39;;;;;;;0.50;0.50;;;7.20;99.90;;;;;;4993155;28;21007;-80
2022/08/23 08:09:06;;;;;;;0.57;0.57;;;7.20;99.90;;;;;;4993018;28;20900;-83
2022/08/23 08:11:35;;;;;;;0.85;0.63;;;7.20;99.90;;;;;;4992682;28;20851;-80
2022/08/23 08:14:08;;;;;;;0.47;0.47;;;7.20;99.90;;;;;;4979212;28;20401;-81
2022/08/23 08:16:41;;;;;;;0.90;0.30;;;7.20;99.90;;;;;;4975782;28;20395;-80
2022/08/23 08:19:11;;;;;;;0.50;0.38;;;7.20;99.90;;;;;;4992956;28;20449;-84
2022/08/23 08:21:39;;;;;;;1.17;0.50;;;7.20;99.90;;;;;;4992590;28;20465;-79
2022/08/23 08:24:09;;;;;;;0.80;0.40;;;7.20;99.90;;;;;;4992580;28;20396;-83
2022/08/23 08:26:37;;;;;;;0.60;0.50;;;7.20;99.90;;;;;;4991995;28;20793;-83
2022/08/23 08:29:05;;;;;;;0.60;0.60;;;7.20;99.90;;;;;;4992890;28;20488;-79
2022/08/23 08:31:33;;;;;;;0.80;0.80;;;7.20;99.90;;;;;;4979648;28;20384;-80
2022/08/23 08:34:00;;;;;;;0.80;0.80;;;7.20;99.90;;;;;;4992150;28;21006;-79
2022/08/23 08:36:41;;;;;;;0.60;0.60;;;7.10;99.90;;;;;;4995440;28;20388;-78
2022/08/23 08:39:11;;;;;;;1.40;1.00;;;7.10;99.90;;;;;;4996958;28;20373;-79
2022/08/23 08:42:13;;;;;;;0.55;0.55;;;7.10;99.90;;;;;;4997126;28;20891;-80
2022/08/23 08:44:54;;;;;;;0.40;0.40;;;7.10;99.90;;;;;;4998962;28;20417;-84
2022/08/23 08:47:33;;;;;;;0.80;0.80;;;7.10;99.90;;;;;;4997362;28;20377;-84
2022/08/23 08:50:25;;;;;;;0.70;0.52;;;7.10;99.90;;;;;;4978182;28;20393;-79
2022/08/23 08:53:15;;;;;;;1.20;1.10;;;7.10;99.90;;;;;;4933926;29;20398;-79
2022/08/23 08:55:52;;;;;;;0.93;0.70;;;7.10;99.90;;;;;;4933639;29;20934;-83
2022/08/23 08:58:25;;;;;;;0.90;0.90;;;7.00;99.90;;;;;;4932826;29;20390;-81
2022/08/23 09:00:53;;;;;;;0.52;0.50;;;7.10;99.90;;;;;;4933268;29;20826;-88
2022/08/23 09:03:21;;;;;;;2.47;2.27;;;7.00;99.90;;;;;;4916284;29;20401;-79
2022/08/23 09:06:02;;;;;;;1.00;1.00;;;7.00;99.90;;;;;;4932746;29;20488;-80
2022/08/23 09:08:32;;;;;;;1.20;0.80;;;7.00;99.90;;;;;;4931718;29;20394;-85
2022/08/23 09:11:44;;;;;;;0.60;0.47;;;7.00;99.90;;;;;;4922784;29;20411;-78
2022/08/23 09:14:16;;;;;;;0.52;0.38;;;7.00;99.90;;;;;;4893924;29;20505;-79
2022/08/23 09:16:46;;;;;;;0.50;0.33;;;7.00;99.90;;;;;;4893329;29;20405;-78
2022/08/23 09:19:14;;;;;;;0.82;0.22;;;7.00;99.90;;;;;;4893399;29;20396;-78
2022/08/23 09:22:01;;;;;;;0.70;0.40;;;7.00;99.90;;;;;;4893800;29;21234;-78
2022/08/23 09:24:29;;;;;;;0.30;0.30;;;6.90;99.90;;;;;;4893594;29;20874;-78
2022/08/23 09:26:57;;;;;;;1.98;0.40;;;7.00;99.90;;;;;;4900428;29;20904;-77
2022/08/23 09:29:31;;;;;;;0.60;0.30;;;6.90;99.90;;;;;;4899147;29;20391;-79
2022/08/23 09:32:01;;;;;;;0.30;0.30;;;6.90;99.90;;;;;;4910290;29;20805;-83
2022/08/23 09:34:37;;;;;;;1.13;0.30;;;6.90;99.90;;;;;;4910842;29;20472;-80
2022/08/23 09:37:16;;;;;;;0.37;0.30;;;6.90;99.90;;;;;;4912899;29;21014;-79
2022/08/23 09:40:12;;;;;;;0.98;0.35;;;6.90;99.90;;;;;;4912073;29;20403;-81
2022/08/23 09:42:41;;;;;;;0.30;0.30;;;6.80;99.90;;;;;;4912214;29;20423;-81
2022/08/23 09:45:28;;;;;;;0.77;0.30;;;6.80;99.90;;;;;;4912434;29;20764;-79
2022/08/23 09:47:55;;;;;;;0.40;0.40;;;6.80;99.90;;;;;;4911344;29;20394;-79
2022/08/23 09:50:41;;;;;;;0.70;0.50;;;6.80;99.90;;;;;;4927382;28;20453;-79
2022/08/23 09:53:12;;;;;;;0.40;0.40;;;6.70;99.90;;;;;;4987331;28;20384;-78
2022/08/23 09:55:48;;;;;;;0.60;0.50;;;6.70;99.90;;;;;;4991031;28;21144;-81
2022/08/23 09:58:36;;;;;;;0.40;0.40;;;6.80;99.90;;;;;;4973854;28;20392;-79
2022/08/23 10:01:12;;;;;;;0.40;0.40;;;6.70;99.90;;;;;;4990213;28;20460;-79
2022/08/23 10:03:41;;;;;;;1.05;0.95;;;6.70;99.90;;;;;;4977389;28;20467;-78
2022/08/23 10:06:11;;;;;;;1.15;0.57;;;6.70;99.90;;;;;;4991075;28;20405;-80
2022/08/23 10:08:52;;;;;;;1.00;0.60;;;6.70;99.90;;;;;;4990439;28;20384;-78
2022/08/23 10:11:29;;;;;;;0.70;0.40;;;6.70;99.90;;;;;;4990398;28;20963;-81
2022/08/23 10:13:56;;;;;;;0.50;0.40;;;6.70;99.90;;;;;;4977075;28;20394;-80
2022/08/23 10:17:19;;;;;;;0.70;0.40;;;6.70;99.90;;;;;;4989759;28;20401;-79
2022/08/23 10:20:22;;;;;;;0.63;0.50;;;6.70;99.90;;;;;;4893116;29;20561;-80
2022/08/23 10:23:05;;;;;;;0.80;0.80;;;6.70;99.90;;;;;;4855031;29;20483;-82
2022/08/23 10:25:38;;;;;;;0.65;0.50;;;6.60;99.90;;;;;;4856048;29;20437;-78
2022/08/23 10:31:26;;;;;;;0.55;0.55;;;6.60;99.90;;;;;;4855210;29;20400;-79
2022/08/23 10:34:05;;;;;;;0.50;0.50;;;6.70;99.90;;;;;;4855182;29;20446;-79
2022/08/23 10:36:50;;;;;;;1.52;0.40;;;6.70;99.90;;;;;;4855183;29;21007;-79
2022/08/23 10:39:29;;;;;;;1.27;0.47;;;6.60;99.90;;;;;;4855468;29;20444;-79
2022/08/23 10:42:41;;;;;;;0.60;0.40;;;6.70;99.90;;;;;;4855507;29;20479;-78
2022/08/23 10:45:13;;;;;;;1.13;0.60;;;6.60;99.90;;;;;;4826782;29;20423;-78
2022/08/23 10:48:16;;;;;;;0.67;0.50;;;6.70;99.90;;;;;;4825844;29;20393;-79
2022/08/23 10:50:55;;;;;;;0.85;0.60;;;6.70;99.90;;;;;;4840823;29;20411;-80
2022/08/23 10:53:35;;;;;;;0.60;0.60;;;6.60;99.90;;;;;;4839201;29;20442;-83
2022/08/23 10:56:03;;;;;;;1.30;0.60;;;6.60;99.90;;;;;;4826210;29;20429;-80
2022/08/23 10:58:51;;;;;;;1.20;0.50;;;6.70;99.90;;;;;;4848605;29;20397;-80
2022/08/23 11:01:22;;;;;;;1.42;0.88;;;6.70;99.90;;;;;;4892696;29;20985;-80
2022/08/23 11:04:06;;;;;;;1.33;0.70;;;6.60;99.90;;;;;;4892239;29;20408;-81
2022/08/23 11:06:36;;;;;;;1.70;0.50;;;6.60;99.90;;;;;;4892344;29;20417;-81
2022/08/23 11:09:09;;;;;;;1.73;0.70;;;6.60;99.90;;;;;;4892773;29;20401;-80
2022/08/23 11:12:00;;;;;;;1.63;0.60;;;6.60;99.90;;;;;;4886833;29;20492;-80
2022/08/23 11:14:45;;;;;;;1.33;0.60;;;6.60;99.90;;;;;;4892014;29;20452;-81
2022/08/23 11:17:31;;;;;;;1.65;0.68;;;6.70;99.90;;;;;;4984836;28;20436;-81
2022/08/23 11:20:06;;;;;;;1.35;0.60;;;6.70;99.90;;;;;;4979605;28;20799;-80
2022/08/23 11:23:03;;;;;;;1.45;0.60;;;6.60;99.90;;;;;;4990611;28;20784;-80
2022/08/23 11:25:30;;;;;;;2.85;0.77;;;6.70;99.90;;;;;;4949408;29;20841;-80
2022/08/23 11:28:21;;;;;;;1.35;0.75;;;6.70;99.90;;;;;;4949145;29;20396;-79
2022/08/23 11:30:59;;;;;;;2.58;0.80;;;6.70;99.90;;;;;;4933387;29;20448;-79
2022/08/23 11:33:55;;;;;;;2.75;0.90;;;6.70;99.90;;;;;;4949346;29;20990;-80
2022/08/23 11:36:26;;;;;;;2.10;0.73;;;6.70;99.90;;;;;;4948254;29;20424;-79
2022/08/23 11:38:54;;;;;;;2.60;1.00;;;6.70;99.90;;;;;;4950391;29;20415;-79
2022/08/23 11:41:24;;;;;;;2.53;0.88;;;6.70;99.90;;;;;;4950006;29;20424;-80
2022/08/23 11:43:56;;;;;;;2.60;0.90;;;6.70;99.90;;;;;;4954965;28;20392;-80
2022/08/23 11:46:26;;;;;;;2.73;0.90;;;6.70;99.90;;;;;;4955205;29;21269;-78
2022/08/23 11:49:37;;;;;;;2.45;0.90;;;6.70;99.90;;;;;;4943329;29;20404;-78
2022/08/23 11:52:09;;;;;;;2.85;0.90;;;6.80;99.90;;;;;;4953460;29;20869;-78
2022/08/23 11:55:13;;;;;;;4.30;0.88;;;6.80;99.90;;;;;;4953108;29;20431;-79
2022/08/23 11:58:03;;;;;;;2.05;0.75;;;6.90;99.90;;;;;;4952316;29;20404;-77
2022/08/23 12:00:52;;;;;;;2.90;0.80;;;7.10;99.90;;;;;;4951762;29;20400;-78
2022/08/23 12:03:34;;;;;;;1.73;0.80;;;7.10;99.90;;;;;;4987503;28;21048;-80
2022/08/23 12:06:16;;;;;;;3.80;0.90;;;7.10;99.90;;;;;;4993172;28;20405;-76
2022/08/23 12:09:00;;;;;;;1.63;0.82;;;7.10;99.90;;;;;;4992292;28;20389;-77
2022/08/23 12:11:57;;;;;;;2.43;0.70;;;7.10;99.90;;;;;;4992944;28;20389;-79
2022/08/23 12:14:30;;;;;;;1.75;0.80;;;7.20;99.90;;;;;;4990000;28;20415;-77
2022/08/23 12:17:04;;;;;;;2.13;0.90;;;7.30;99.90;;;;;;4993060;28;20385;-79
2022/08/23 12:20:07;;;;;;;2.15;0.90;;;7.30;99.90;;;;;;4993147;28;20435;-76
2022/08/23 12:23:07;;;;;;;2.15;1.05;;;7.30;99.90;;;;;;4992877;28;20812;-79
2022/08/23 12:25:36;;;;;;;2.38;0.80;;;7.30;99.90;;;;;;4992733;28;20455;-77
2022/08/23 12:28:38;;;;;;;2.72;0.90;;;7.40;99.90;;;;;;4992551;28;20393;-77
2022/08/23 12:31:05;;;;;;;2.90;0.90;;;7.40;99.90;;;;;;4989243;28;20849;-78
2022/08/23 12:33:39;;;;;;;2.70;0.70;;;7.50;99.90;;;;;;4992910;28;20388;-77
2022/08/23 12:36:20;;;;;;;2.43;0.70;;;7.60;99.90;;;;;;4992143;28;20412;-76
2022/08/23 12:39:03;;;;;;;3.03;1.08;;;7.60;99.90;;;;;;4992500;28;21301;-77
2022/08/23 12:41:54;;;;;;;1.00;0.57;;;7.70;99.90;;;;;;4992215;28;20420;-78
2022/08/23 12:44:25;;;;;;;2.50;0.73;;;8.00;99.90;;;;;;4913494;29;20454;-77
2022/08/23 12:46:52;;;;;;;2.17;0.70;;;8.00;99.90;;;;;;4913741;29;20448;-80
2022/08/23 12:49:34;;;;;;;2.53;0.90;;;8.10;99.90;;;;;;4913061;29;20549;-76
2022/08/23 12:52:06;;;;;;;2.60;1.00;;;8.00;99.90;;;;;;4913356;29;20392;-76
2022/08/23 12:54:45;;;;;;;2.80;0.70;;;8.00;99.90;;;;;;4911923;29;20820;-79
2022/08/23 12:57:29;;;;;;;1.30;0.50;;;8.00;99.90;;;;;;4914982;29;20410;-76
2022/08/23 13:00:14;;;;;;;1.77;0.50;;;8.10;99.90;;;;;;4917099;29;20562;-76
2022/08/23 13:03:04;;;;;;;0.93;0.50;;;8.30;99.90;;;;;;4913200;29;20502;-79
2022/08/23 13:05:43;;;;;;;1.50;0.50;;;8.40;99.90;;;;;;4912780;29;20478;-77
2022/08/23 13:08:21;;;;;;;1.10;0.52;;;8.50;99.90;;;;;;4912976;29;20403;-77
2022/08/23 13:10:50;;;;;;;1.02;0.60;;;8.60;99.90;;;;;;4912925;29;20394;-79
2022/08/23 13:13:24;;;;;;;1.40;0.55;;;8.70;99.90;;;;;;4912761;29;20962;-76
2022/08/23 13:16:01;;;;;;;1.25;0.47;;;8.90;99.90;;;;;;4912883;29;20430;-79
2022/08/23 13:18:30;;;;;;;1.73;0.50;;;8.90;99.90;;;;;;4912963;29;20555;-77
2022/08/23 13:21:22;;;;;;;1.63;0.60;;;9.00;99.90;;;;;;4936594;28;20915;-76
2022/08/23 13:23:55;;;;;;;3.33;0.70;;;9.10;99.90;;;;;;4991320;28;20791;-78
2022/08/23 13:26:37;;;;;;;1.10;0.60;;;9.10;99.90;;;;;;4991833;28;20396;-76
2022/08/23 13:29:09;;;;;;;1.15;0.60;;;9.10;99.90;;;;;;4992127;28;20377;-75
2022/08/23 13:31:58;;;;;;;2.05;0.60;;;9.10;99.90;;;;;;4978776;28;20477;-76
2022/08/23 13:34:45;;;;;;;2.20;0.70;;;9.00;99.90;;;;;;4991485;28;20958;-77
2022/08/23 13:37:32;;;;;;;1.80;0.60;;;9.00;99.90;;;;;;4991496;28;20885;-77
2022/08/23 13:40:10;;;;;;;1.83;0.70;;;9.00;99.90;;;;;;4991715;28;20380;-78